Time;durP1;ratioP1;P1;durP2;ratioP2;P2;SDS_P1;SDS_P2;PMS_P1;PMS_P2;Temp;Humidity;BMP_temperature;BMP_pressure;BME280_temperature;BME280_humidity;BME280_pressure;Samples;Min_cycle;Max_cycle;Signal;HPM_P1;HPM_P2
2023/11/06 11:07:48;;;;;;;;;;;;;;;24.65;69.27;99452.66;6094854;22;1939248;-60
2023/11/06 11:10:18;;;;;;;;;;;;;;;24.64;63.92;99450.31;6192925;23;1904;-60
2023/11/06 11:12:46;;;;;;;;;;;;;;;24.65;55.32;99452.66;6192292;23;882;-59
2023/11/06 11:15:14;;;;;;;;;;;;;;;24.64;53.76;99455.97;6192405;23;848;-59
2023/11/06 11:18:04;;;;;;;;;;;;;;;24.66;54.22;99461.88;6190720;23;1306;-59
2023/11/06 11:20:49;;;;;;;;;;;;;;;24.81;56.19;99456.03;6173788;23;1208;-59
2023/11/06 11:23:15;;;;;;;;;;;;;;;24.85;55.40;99454.50;6192167;23;1132;-59
2023/11/06 11:25:55;;;;;;;;;;;;;;;24.96;55.23;99461.47;6192209;23;924;-59
2023/11/06 11:28:22;;;;;;;;;;;;;;;24.83;54.53;99451.41;6192139;23;890;-60
2023/11/06 11:30:48;;;;;;;;;;;;;;;24.82;53.98;99460.41;6192022;23;909;-60
2023/11/06 11:33:33;;;;;;;;;;;;;;;24.70;53.99;99459.59;6192177;23;930;-59
2023/11/06 11:36:01;;;;;;;;;;;;;;;24.79;52.00;99461.41;6192046;23;831;-59
2023/11/06 11:38:31;;;;;;;;;;;;;;;25.03;53.05;99464.56;6192058;23;906;-59
2023/11/06 11:41:03;;;;;;;;;;;;;;;25.02;50.46;99465.84;6192044;23;1864;-60
2023/11/06 11:43:32;;;;;;;;;;;;;;;25.01;50.54;99461.47;6192407;23;855;-60
2023/11/06 11:45:59;;;;;;;;;;;;;;;25.32;48.94;99459.75;6192052;23;823;-60
2023/11/06 11:48:55;;;;;;;;;;;;;;;25.46;46.05;99455.88;6191901;23;933;-58
2023/11/06 11:51:40;;;;;;;;;;;;;;;25.56;43.97;99452.78;6166791;23;1235;-59
2023/11/06 11:54:06;;;;;;;;;;;;;;;25.37;43.98;99453.34;6191849;23;855;-60
2023/11/06 11:56:49;;;;;;;;;;;;;;;25.46;44.42;99463.63;6192135;23;850;-60
2023/11/06 11:59:16;;;;;;;;;;;;;;;25.51;43.74;99460.00;6192093;23;767;-60
2023/11/06 12:01:42;;;;;;;;;;;;;;;25.71;43.40;99458.97;6190375;23;1873;-61
2023/11/06 12:04:22;;;;;;;;;;;;;;;25.69;42.35;99475.69;6185642;23;858;-60
2023/11/06 12:06:59;;;;;;;;;;;;;;;25.45;44.08;99477.00;6184739;23;1640;-60
2023/11/06 12:09:31;;;;;;;;;;;;;;;25.71;44.07;99475.16;6185160;23;842;-60
2023/11/06 12:11:58;;;;;;;;;;;;;;;25.86;41.73;99479.28;6185493;23;799;-60
2023/11/06 12:14:29;;;;;;;;;;;;;;;25.78;41.01;99478.25;6185168;23;1102;-60
2023/11/06 12:16:56;;;;;;;;;;;;;;;25.72;42.29;99474.66;6184959;23;1013;-61
2023/11/06 12:19:22;;;;;;;;;;;;;;;25.81;42.33;99479.28;6185126;23;795;-60
2023/11/06 12:22:01;;;;;;;;;;;;;;;25.78;39.93;99483.91;6184959;23;1943;-61
2023/11/06 12:24:27;;;;;;;;;;;;;;;25.86;40.66;99482.13;6185352;23;800;-61
2023/11/06 12:26:55;;;;;;;;;;;;;;;26.33;40.17;99477.91;6185362;23;799;-61
2023/11/06 12:29:28;;;;;;;;;;;;;;;26.57;39.80;99483.78;6185102;23;867;-61
2023/11/06 12:31:55;;;;;;;;;;;;;;;26.37;39.04;99486.91;6183463;23;948;-61
2023/11/06 12:34:22;;;;;;;;;;;;;;;26.09;39.56;99482.09;6185133;23;846;-62
2023/11/06 12:36:48;;;;;;;;;;;;;;;25.93;40.15;99489.34;6184783;23;843;-62
2023/11/06 12:39:25;;;;;;;;;;;;;;;25.96;40.70;99488.28;6184936;23;803;-62
2023/11/06 12:41:58;;;;;;;;;;;;;;;26.09;39.95;99490.59;6184785;23;1865;-62
2023/11/06 12:44:38;;;;;;;;;;;;;;;26.03;39.78;99482.13;6185109;23;865;-63
2023/11/06 12:47:05;;;;;;;;;;;;;;;25.99;39.69;99481.59;6183685;23;1075;-61
2023/11/06 12:49:48;;;;;;;;;;;;;;;26.14;39.87;99497.53;6184666;23;875;-62
2023/11/06 12:52:26;;;;;;;;;;;;;;;26.12;39.47;99488.78;6184665;23;787;-61
2023/11/06 12:54:53;;;;;;;;;;;;;;;26.04;40.19;99488.53;6184902;23;1182;-61
2023/11/06 12:57:19;;;;;;;;;;;;;;;25.96;40.66;99491.13;6184639;23;870;-61
2023/11/06 12:59:46;;;;;;;;;;;;;;;25.87;40.35;99491.38;6183146;23;1924;-61
2023/11/06 13:02:12;;;;;;;;;;;;;;;25.76;40.24;99492.16;6184718;23;998;-61
2023/11/06 13:04:40;;;;;;;;;;;;;;;25.82;40.78;99492.16;6183031;23;1144;-60
2023/11/06 13:07:08;;;;;;;;;;;;;;;25.83;40.54;99490.84;6184399;23;1177;-61
2023/11/06 13:09:34;;;;;;;;;;;;;;;25.79;40.15;99502.44;6184677;23;1189;-61
2023/11/06 13:12:01;;;;;;;;;;;;;;;25.68;40.94;99499.63;6184633;23;969;-61
2023/11/06 13:14:28;;;;;;;;;;;;;;;25.78;40.29;99509.41;6183915;23;901;-61
2023/11/06 13:16:55;;;;;;;;;;;;;;;25.77;40.11;99507.84;6184770;23;823;-61
2023/11/06 13:19:28;;;;;;;;;;;;;;;25.76;39.76;99511.97;6184408;23;898;-61
2023/11/06 13:21:56;;;;;;;;;;;;;;;25.62;39.49;99513.00;6184529;23;1940;-62
2023/11/06 13:24:23;;;;;;;;;;;;;;;25.44;39.71;99517.09;6184549;23;850;-63
2023/11/06 13:29:53;;;;;;;;;;;;;;;25.45;40.54;99513.78;6184164;23;1051;-62
2023/11/06 13:32:19;;;;;;;;;;;;;;;25.42;40.40;99525.34;6184408;23;1162;-62
2023/11/06 13:34:46;;;;;;;;;;;;;;;25.38;39.92;99521.97;6184383;23;878;-62
2023/11/06 13:37:13;;;;;;;;;;;;;;;25.18;40.37;99528.63;6184221;23;922;-62
2023/11/06 13:39:41;;;;;;;;;;;;;;;24.76;41.02;99525.38;6184581;23;933;-61
2023/11/06 13:42:10;;;;;;;;;;;;;;;24.45;42.10;99529.06;6185157;23;764;-62
2023/11/06 13:44:37;;;;;;;;;;;;;;;24.21;42.55;99535.09;6184494;23;866;-62
2023/11/06 13:47:02;;;;;;;;;;;;;;;23.96;43.01;99543.16;6184511;23;863;-61
2023/11/06 13:49:29;;;;;;;;;;;;;;;23.85;42.83;99545.84;6184307;23;1174;-60
2023/11/06 13:51:56;;;;;;;;;;;;;;;23.82;43.26;99547.63;6184369;23;838;-60
2023/11/06 13:54:34;;;;;;;;;;;;;;;24.05;44.13;99550.66;6185027;23;815;-60
2023/11/06 13:57:01;;;;;;;;;;;;;;;24.12;44.00;99555.06;6184277;23;882;-61
2023/11/06 13:59:32;;;;;;;;;;;;;;;23.95;43.57;99557.75;6182489;23;1200;-60
2023/11/06 14:02:00;;;;;;;;;;;;;;;23.71;44.43;99560.88;6184125;23;1869;-60
2023/11/06 14:04:32;;;;;;;;;;;;;;;23.53;45.07;99551.44;6183876;23;873;-60
2023/11/06 14:06:59;;;;;;;;;;;;;;;23.35;45.79;99558.22;6184075;23;1360;-61
2023/11/06 14:09:41;;;;;;;;;;;;;;;23.29;45.72;99556.59;6184287;23;809;-60
2023/11/06 14:12:13;;;;;;;;;;;;;;;23.24;46.32;99563.75;6182412;23;1226;-60
2023/11/06 14:14:40;;;;;;;;;;;;;;;23.08;42.86;99573.53;6183953;23;818;-60
2023/11/06 14:17:07;;;;;;;;;;;;;;;22.84;42.36;99565.28;6183999;23;788;-60
2023/11/06 14:19:40;;;;;;;;;;;;;;;22.57;43.07;99572.09;6184031;23;850;-60
2023/11/06 14:22:09;;;;;;;;;;;;;;;22.36;42.63;99569.28;6183805;23;1897;-60
2023/11/06 14:24:36;;;;;;;;;;;;;;;22.23;43.04;99568.81;6183669;23;905;-61
2023/11/06 14:27:05;;;;;;;;;;;;;;;22.10;43.39;99574.72;6183917;23;854;-60
2023/11/06 14:29:31;;;;;;;;;;;;;;;21.95;44.19;99573.97;6184053;23;807;-60
2023/11/06 14:31:58;;;;;;;;;;;;;;;21.58;45.61;99577.19;6182261;23;1381;-61
2023/11/06 14:34:25;;;;;;;;;;;;;;;21.37;45.96;99584.69;6183829;23;1132;-60
2023/11/06 14:36:51;;;;;;;;;;;;;;;20.99;47.35;99584.25;6183914;23;842;-60
2023/11/06 14:39:19;;;;;;;;;;;;;;;20.78;47.59;99586.09;6183900;23;840;-60
2023/11/06 14:41:45;;;;;;;;;;;;;;;20.70;47.66;99587.72;6183829;23;1869;-60
2023/11/06 14:44:18;;;;;;;;;;;;;;;20.57;48.33;99584.34;6183845;23;881;-60
2023/11/06 14:46:45;;;;;;;;;;;;;;;20.30;49.33;99591.63;6183759;23;834;-59
2023/11/06 14:49:11;;;;;;;;;;;;;;;20.05;50.59;99598.44;6183811;23;981;-60
2023/11/06 14:51:39;;;;;;;;;;;;;;;19.75;51.93;99601.00;6183849;23;799;-60
2023/11/06 14:54:06;;;;;;;;;;;;;;;19.41;53.19;99604.16;6184123;23;858;-60
2023/11/06 14:56:32;;;;;;;;;;;;;;;19.18;54.14;99603.53;6182460;23;810;-61
2023/11/06 14:58:59;;;;;;;;;;;;;;;19.00;55.01;99601.50;6183723;23;803;-61
2023/11/06 15:01:25;;;;;;;;;;;;;;;18.81;56.40;99599.91;6184062;23;1873;-61
2023/11/06 15:03:57;;;;;;;;;;;;;;;18.60;57.32;99612.75;6184023;23;831;-63
2023/11/06 15:06:23;;;;;;;;;;;;;;;18.45;57.79;99616.13;6184236;23;1007;-66
2023/11/06 15:08:50;;;;;;;;;;;;;;;18.48;57.92;99618.00;6183495;23;1403;-69
2023/11/06 15:11:18;;;;;;;;;;;;;;;18.41;58.20;99614.72;6183907;23;841;-69
2023/11/06 15:13:45;;;;;;;;;;;;;;;18.27;58.84;99625.22;6183724;23;982;-65
2023/11/06 15:16:12;;;;;;;;;;;;;;;18.21;59.08;99620.69;6182265;23;1392;-65
2023/11/06 15:18:39;;;;;;;;;;;;;;;18.15;59.42;99620.50;6183672;23;835;-67
2023/11/06 15:21:06;;;;;;;;;;;;;;;18.09;59.60;99631.53;6184063;23;1948;-66
2023/11/06 15:23:33;;;;;;;;;;;;;;;18.06;60.14;99631.66;6183652;23;830;-66
2023/11/06 15:26:00;;;;;;;;;;;;;;;17.87;61.02;99633.56;6183750;23;835;-67
2023/11/06 15:28:27;;;;;;;;;;;;;;;17.82;61.12;99634.94;6183915;23;799;-66
2023/11/06 15:30:55;;;;;;;;;;;;;;;17.73;61.28;99641.22;6183525;23;902;-65
2023/11/06 15:33:22;;;;;;;;;;;;;;;17.74;61.29;99639.22;6183620;23;819;-65
2023/11/06 15:35:49;;;;;;;;;;;;;;;17.71;61.88;99646.50;6183587;23;879;-65
2023/11/06 15:38:16;;;;;;;;;;;;;;;17.72;62.04;99645.25;6185068;23;819;-64
2023/11/06 15:40:45;;;;;;;;;;;;;;;17.67;62.28;99645.84;6183727;23;1920;-63
2023/11/06 15:43:14;;;;;;;;;;;;;;;17.68;62.12;99658.56;6185480;23;819;-63
2023/11/06 15:45:41;;;;;;;;;;;;;;;17.76;61.89;99656.31;6185431;23;1235;-63
2023/11/06 15:48:08;;;;;;;;;;;;;;;17.72;62.41;99655.66;6185862;23;815;-64
2023/11/06 15:50:35;;;;;;;;;;;;;;;17.60;63.21;99668.44;6185793;23;776;-63
2023/11/06 15:53:01;;;;;;;;;;;;;;;17.62;62.92;99665.97;6185417;23;810;-63
2023/11/06 15:55:29;;;;;;;;;;;;;;;17.67;62.86;99667.44;6185400;23;804;-63
2023/11/06 15:57:56;;;;;;;;;;;;;;;17.69;62.68;99678.94;6185735;23;1206;-63
2023/11/06 16:00:22;;;;;;;;;;;;;;;17.70;62.24;99678.47;6183670;23;1872;-63
2023/11/06 16:02:48;;;;;;;;;;;;;;;17.67;62.47;99687.75;6183529;23;1170;-63
2023/11/06 16:05:15;;;;;;;;;;;;;;;17.67;62.67;99687.75;6185341;23;811;-63
2023/11/06 16:07:42;;;;;;;;;;;;;;;17.66;62.96;99688.22;6185142;23;1248;-64
2023/11/06 16:10:09;;;;;;;;;;;;;;;17.61;62.95;99691.59;6185444;23;808;-64
2023/11/06 16:12:35;;;;;;;;;;;;;;;17.50;63.67;99697.56;6185641;23;851;-64
2023/11/06 16:15:02;;;;;;;;;;;;;;;17.29;64.95;99699.84;6185143;23;784;-63
2023/11/06 16:17:29;;;;;;;;;;;;;;;17.27;65.14;99704.34;6185234;23;834;-63
2023/11/06 16:19:56;;;;;;;;;;;;;;;17.25;65.60;99706.78;6185173;23;1940;-64
2023/11/06 16:22:22;;;;;;;;;;;;;;;17.23;65.21;99706.47;6185089;23;799;-64
2023/11/06 16:24:50;;;;;;;;;;;;;;;17.24;65.78;99713.59;6185103;23;1014;-64
2023/11/06 16:27:20;;;;;;;;;;;;;;;17.18;65.98;99710.63;6185395;23;843;-64
2023/11/06 16:29:47;;;;;;;;;;;;;;;17.15;66.09;99711.50;6185229;23;1235;-63
2023/11/06 16:32:14;;;;;;;;;;;;;;;17.22;65.08;99722.44;6184924;23;1221;-63
2023/11/06 16:34:41;;;;;;;;;;;;;;;17.35;64.51;99723.19;6185320;23;843;-64
2023/11/06 16:37:08;;;;;;;;;;;;;;;17.25;65.26;99723.56;6184952;23;1251;-63
2023/11/06 16:39:35;;;;;;;;;;;;;;;17.11;65.90;99724.78;6183549;23;1593;-63
2023/11/06 16:42:01;;;;;;;;;;;;;;;16.94;66.87;99726.94;6185285;23;1877;-63
2023/11/06 16:44:28;;;;;;;;;;;;;;;16.92;67.29;99732.22;6184970;23;866;-63
2023/11/06 16:46:54;;;;;;;;;;;;;;;16.89;67.19;99730.31;6185046;23;806;-63
2023/11/06 16:49:21;;;;;;;;;;;;;;;16.88;67.22;99731.53;6184874;23;850;-63
2023/11/06 16:51:48;;;;;;;;;;;;;;;16.93;67.14;99739.34;6184875;23;846;-63
2023/11/06 16:54:18;;;;;;;;;;;;;;;17.00;66.63;99750.28;6184786;23;791;-63
2023/11/06 16:56:46;;;;;;;;;;;;;;;17.14;65.61;99746.25;6185175;23;814;-63
2023/11/06 16:59:15;;;;;;;;;;;;;;;17.08;65.57;99756.41;6184916;23;846;-63
2023/11/06 17:01:42;;;;;;;;;;;;;;;17.07;65.30;99764.03;6184731;23;1916;-63
2023/11/06 17:04:09;;;;;;;;;;;;;;;17.09;65.25;99764.34;6184768;23;783;-64
2023/11/06 17:06:35;;;;;;;;;;;;;;;17.02;66.24;99766.59;6184655;23;1241;-63
2023/11/06 17:09:02;;;;;;;;;;;;;;;16.94;65.92;99769.63;6184746;23;830;-62
2023/11/06 17:11:28;;;;;;;;;;;;;;;17.07;65.28;99769.59;6184757;23;807;-63
2023/11/06 17:13:55;;;;;;;;;;;;;;;17.08;65.00;99764.78;6185045;23;810;-63
2023/11/06 17:16:22;;;;;;;;;;;;;;;17.10;64.99;99776.31;6184798;23;847;-63
2023/11/06 17:18:50;;;;;;;;;;;;;;;17.01;65.71;99773.41;6184928;23;862;-63
2023/11/06 17:21:23;;;;;;;;;;;;;;;16.93;65.86;99772.84;6184592;23;1900;-63
2023/11/06 17:23:51;;;;;;;;;;;;;;;16.90;66.17;99784.91;6184590;23;803;-64
2023/11/06 17:26:18;;;;;;;;;;;;;;;16.85;65.64;99783.44;6184805;23;953;-63
2023/11/06 17:28:44;;;;;;;;;;;;;;;16.90;65.40;99794.06;6184531;23;834;-62
2023/11/06 17:31:11;;;;;;;;;;;;;;;16.98;64.17;99788.25;6184389;23;792;-63
2023/11/06 17:33:38;;;;;;;;;;;;;;;17.06;64.05;99795.19;6184433;23;843;-63
2023/11/06 17:36:05;;;;;;;;;;;;;;;16.90;64.82;99791.28;6184484;23;807;-63
2023/11/06 17:38:32;;;;;;;;;;;;;;;16.88;64.88;99798.53;6184645;23;850;-63
2023/11/06 17:40:59;;;;;;;;;;;;;;;16.89;64.67;99798.06;6184239;23;1877;-63
2023/11/06 17:43:26;;;;;;;;;;;;;;;16.98;63.88;99802.22;6184496;23;827;-64
2023/11/06 17:45:52;;;;;;;;;;;;;;;17.01;63.72;99801.34;6184270;23;826;-63
2023/11/06 17:48:19;;;;;;;;;;;;;;;17.01;64.02;99804.91;6182688;23;1291;-63
2023/11/06 17:50:46;;;;;;;;;;;;;;;17.01;63.34;99815.28;6184167;23;834;-63
2023/11/06 17:53:13;;;;;;;;;;;;;;;17.07;63.04;99802.31;6184402;23;858;-63
2023/11/06 17:55:41;;;;;;;;;;;;;;;17.15;63.36;99817.63;6184193;23;849;-63
2023/11/06 17:58:08;;;;;;;;;;;;;;;16.93;64.52;99823.88;6184274;23;839;-63
2023/11/06 18:00:35;;;;;;;;;;;;;;;16.88;64.13;99821.66;6183763;23;1896;-62
2023/11/06 18:03:01;;;;;;;;;;;;;;;16.96;64.29;99824.22;6184103;23;824;-63
2023/11/06 18:05:28;;;;;;;;;;;;;;;16.86;64.67;99831.69;6184211;23;831;-63
2023/11/06 18:07:54;;;;;;;;;;;;;;;16.85;64.89;99825.31;6184102;23;1194;-63
2023/11/06 18:10:21;;;;;;;;;;;;;;;16.77;65.26;99842.69;6184191;23;858;-63
2023/11/06 18:12:47;;;;;;;;;;;;;;;16.68;65.63;99849.69;6184069;23;859;-63
2023/11/06 18:15:14;;;;;;;;;;;;;;;16.64;65.83;99849.03;6183946;23;882;-64
2023/11/06 18:17:43;;;;;;;;;;;;;;;16.71;65.40;99859.22;6184027;23;838;-63
2023/11/06 18:20:11;;;;;;;;;;;;;;;16.66;65.35;99865.31;6183855;23;1925;-62
2023/11/06 18:22:38;;;;;;;;;;;;;;;16.64;65.42;99865.78;6184082;23;869;-64
2023/11/06 18:25:05;;;;;;;;;;;;;;;16.60;65.66;99861.50;6184005;23;853;-64
2023/11/06 18:27:35;;;;;;;;;;;;;;;16.57;65.87;99862.41;6184044;23;850;-64
2023/11/06 18:30:03;;;;;;;;;;;;;;;16.56;65.22;99866.41;6183855;23;906;-63
2023/11/06 18:32:31;;;;;;;;;;;;;;;16.73;63.63;99870.72;6183943;23;894;-63
2023/11/06 18:35:01;;;;;;;;;;;;;;;16.91;62.94;99870.22;6183875;23;838;-63
2023/11/06 18:37:29;;;;;;;;;;;;;;;16.92;62.19;99866.22;6184249;23;838;-63
2023/11/06 18:39:56;;;;;;;;;;;;;;;16.89;62.56;99873.44;6183894;23;1877;-63
2023/11/06 18:42:23;;;;;;;;;;;;;;;16.78;62.59;99872.94;6183841;23;795;-63
2023/11/06 18:44:50;;;;;;;;;;;;;;;16.83;61.92;99874.44;6183907;23;810;-62
2023/11/06 18:47:18;;;;;;;;;;;;;;;16.79;62.09;99865.34;6183758;23;803;-63
2023/11/06 18:49:48;;;;;;;;;;;;;;;16.86;61.73;99882.72;6183844;23;826;-63
2023/11/06 18:52:15;;;;;;;;;;;;;;;16.89;61.57;99870.66;6182379;23;1461;-63
2023/11/06 18:54:42;;;;;;;;;;;;;;;16.97;61.25;99870.44;6184267;23;795;-62
2023/11/06 18:57:12;;;;;;;;;;;;;;;17.02;60.96;99875.47;6183968;23;911;-63
2023/11/06 18:59:38;;;;;;;;;;;;;;;16.91;61.64;99879.38;6183740;23;818;-63
2023/11/06 19:02:05;;;;;;;;;;;;;;;16.86;61.66;99874.34;6183695;23;1869;-63
2023/11/06 19:04:31;;;;;;;;;;;;;;;16.77;61.77;99881.75;6183970;23;878;-63
2023/11/06 19:06:58;;;;;;;;;;;;;;;16.78;61.81;99883.34;6184048;23;1323;-63
2023/11/06 19:09:26;;;;;;;;;;;;;;;16.71;61.97;99887.13;6183965;23;899;-63
2023/11/06 19:11:52;;;;;;;;;;;;;;;16.71;61.60;99898.28;6184011;23;858;-63
2023/11/06 19:14:19;;;;;;;;;;;;;;;16.72;61.39;99892.25;6185962;23;843;-63
2023/11/06 19:16:46;;;;;;;;;;;;;;;16.64;61.83;99898.47;6185836;23;830;-63
2023/11/06 19:19:12;;;;;;;;;;;;;;;16.70;60.44;99897.47;6186006;23;772;-63
2023/11/06 19:21:41;;;;;;;;;;;;;;;16.80;60.51;99897.63;6185762;23;1921;-62
2023/11/06 19:24:08;;;;;;;;;;;;;;;16.59;59.90;99862.75;6185893;23;1018;-63
2023/11/06 19:26:36;;;;;;;;;;;;;;;16.87;59.63;99898.22;6185800;23;816;-63
2023/11/06 19:29:03;;;;;;;;;;;;;;;16.85;59.44;99905.47;6185700;23;862;-63
2023/11/06 19:31:30;;;;;;;;;;;;;;;16.97;58.60;99915.91;6185722;23;827;-64
2023/11/06 19:33:57;;;;;;;;;;;;;;;16.94;58.84;99903.63;6185894;23;815;-63
2023/11/06 19:36:24;;;;;;;;;;;;;;;16.85;59.24;99917.41;6185536;23;903;-63
2023/11/06 19:38:50;;;;;;;;;;;;;;;16.85;58.91;99908.28;6185506;23;826;-63
2023/11/06 19:41:16;;;;;;;;;;;;;;;16.87;59.14;99914.97;6185494;23;1873;-64
2023/11/06 19:43:44;;;;;;;;;;;;;;;16.78;59.78;99920.41;6185570;23;791;-63
2023/11/06 19:46:14;;;;;;;;;;;;;;;16.67;59.82;99917.13;6185589;23;862;-63
2023/11/06 19:48:42;;;;;;;;;;;;;;;16.63;60.21;99927.63;6185343;23;828;-63
2023/11/06 19:51:09;;;;;;;;;;;;;;;16.51;60.74;99927.13;6185551;23;811;-63
2023/11/06 19:53:36;;;;;;;;;;;;;;;16.30;61.91;99930.47;6185533;23;787;-63
2023/11/06 19:56:03;;;;;;;;;;;;;;;16.25;62.00;99926.22;6185586;23;804;-63
2023/11/06 19:58:30;;;;;;;;;;;;;;;16.19;62.75;99932.75;6185570;23;867;-63
2023/11/06 20:00:57;;;;;;;;;;;;;;;15.97;64.31;99941.66;6185225;23;1868;-63
2023/11/06 20:03:24;;;;;;;;;;;;;;;16.04;64.20;99938.69;6185492;23;858;-63
2023/11/06 20:05:51;;;;;;;;;;;;;;;15.97;65.14;99935.31;6185112;23;974;-63
2023/11/06 20:08:19;;;;;;;;;;;;;;;15.85;66.12;99942.34;6185144;23;1258;-63
2023/11/06 20:10:46;;;;;;;;;;;;;;;15.74;66.39;99939.06;6185583;23;851;-63
2023/11/06 20:13:13;;;;;;;;;;;;;;;15.74;66.74;99945.41;6185020;23;925;-63
2023/11/06 20:15:40;;;;;;;;;;;;;;;15.49;69.13;99941.19;6185170;23;851;-63
2023/11/06 20:18:06;;;;;;;;;;;;;;;15.35;70.61;99944.28;6185166;23;831;-63
2023/11/06 20:20:33;;;;;;;;;;;;;;;15.10;72.77;99944.81;6183485;23;1946;-63
2023/11/06 20:22:59;;;;;;;;;;;;;;;14.80;75.41;99949.41;6183161;23;1246;-63
2023/11/06 20:25:26;;;;;;;;;;;;;;;14.76;76.73;99953.47;6185578;23;834;-63
2023/11/06 20:27:53;;;;;;;;;;;;;;;14.72;77.85;99952.75;6184895;23;889;-63
2023/11/06 20:30:19;;;;;;;;;;;;;;;14.74;77.82;99959.44;6185140;23;819;-63
2023/11/06 20:32:45;;;;;;;;;;;;;;;14.85;76.42;99954.47;6185092;23;838;-62
2023/11/06 20:35:13;;;;;;;;;;;;;;;14.87;76.11;99954.03;6184988;23;799;-63
2023/11/06 20:37:39;;;;;;;;;;;;;;;14.84;76.27;99958.47;6185041;23;834;-63
2023/11/06 20:40:06;;;;;;;;;;;;;;;14.69;77.71;99952.38;6184881;23;1920;-63
2023/11/06 20:42:36;;;;;;;;;;;;;;;14.66;77.51;99950.47;6184900;23;885;-63
2023/11/06 20:45:03;;;;;;;;;;;;;;;15.27;69.91;99957.56;6184893;23;874;-62
2023/11/06 20:47:29;;;;;;;;;;;;;;;15.85;65.75;99956.28;6183285;23;1176;-63
2023/11/06 20:49:55;;;;;;;;;;;;;;;16.21;63.56;99961.78;6184749;23;957;-63
2023/11/06 20:52:22;;;;;;;;;;;;;;;16.40;62.00;99956.53;6184880;23;851;-63
2023/11/06 20:54:49;;;;;;;;;;;;;;;16.39;61.81;99957.75;6184850;23;901;-63
2023/11/06 20:57:17;;;;;;;;;;;;;;;16.12;63.98;99967.19;6184657;23;808;-63
2023/11/06 20:59:44;;;;;;;;;;;;;;;15.64;67.52;99963.94;6184739;23;807;-63
2023/11/06 21:02:11;;;;;;;;;;;;;;;15.82;65.17;99959.97;6182979;23;1907;-62
2023/11/06 21:04:37;;;;;;;;;;;;;;;16.10;63.44;99962.03;6184728;23;870;-63
2023/11/06 21:07:03;;;;;;;;;;;;;;;16.07;63.99;99970.50;6184579;23;1185;-65
2023/11/06 21:09:30;;;;;;;;;;;;;;;15.57;67.37;99969.66;6184674;23;796;-64
2023/11/06 21:11:57;;;;;;;;;;;;;;;15.16;70.16;99962.59;6184706;23;819;-65
2023/11/06 21:14:24;;;;;;;;;;;;;;;15.05;70.75;99971.16;6184679;23;835;-65
2023/11/06 21:16:51;;;;;;;;;;;;;;;15.04;71.26;99977.97;6184917;23;823;-65
2023/11/06 21:19:17;;;;;;;;;;;;;;;14.93;72.20;99974.59;6182889;23;1303;-65
2023/11/06 21:21:44;;;;;;;;;;;;;;;14.69;73.97;99971.09;6184507;23;1979;-65
2023/11/06 21:24:19;;;;;;;;;;;;;;;14.59;75.22;99972.84;6184467;23;870;-65
2023/11/06 21:26:47;;;;;;;;;;;;;;;14.66;74.77;99983.06;6184406;23;818;-65
2023/11/06 21:29:14;;;;;;;;;;;;;;;14.58;75.66;99981.63;6184479;23;788;-65
2023/11/06 21:31:41;;;;;;;;;;;;;;;14.43;76.57;99978.28;6182834;23;1283;-65
2023/11/06 21:34:08;;;;;;;;;;;;;;;14.25;78.18;99978.59;6184283;23;775;-65
2023/11/06 21:36:34;;;;;;;;;;;;;;;14.18;79.25;99984.28;6184078;23;843;-65
2023/11/06 21:39:01;;;;;;;;;;;;;;;14.14;81.11;99981.56;6184624;23;874;-65
2023/11/06 21:41:28;;;;;;;;;;;;;;;14.18;81.70;99985.06;6184244;23;2021;-65
2023/11/06 21:43:55;;;;;;;;;;;;;;;14.08;82.96;99978.50;6184684;23;811;-65
2023/11/06 21:46:22;;;;;;;;;;;;;;;14.00;84.80;99977.03;6184279;23;867;-65
2023/11/06 21:48:49;;;;;;;;;;;;;;;13.93;85.76;99984.69;6184341;23;847;-63
2023/11/06 21:51:16;;;;;;;;;;;;;;;14.00;84.82;99984.59;6184256;23;823;-62
2023/11/06 21:53:43;;;;;;;;;;;;;;;14.06;83.78;99988.44;6184174;23;860;-63
2023/11/06 21:56:09;;;;;;;;;;;;;;;14.12;82.82;99985.97;6184107;23;883;-63
2023/11/06 21:58:36;;;;;;;;;;;;;;;13.95;84.53;99987.81;6184161;23;823;-65
2023/11/06 22:01:04;;;;;;;;;;;;;;;13.92;85.69;99983.91;6184067;23;1897;-65
2023/11/06 22:03:30;;;;;;;;;;;;;;;14.02;84.66;99988.50;6184060;23;969;-65
2023/11/06 22:05:57;;;;;;;;;;;;;;;14.07;84.33;99990.03;6184246;23;935;-64
2023/11/06 22:08:24;;;;;;;;;;;;;;;14.03;84.70;99989.28;6183857;23;1147;-65
2023/11/06 22:10:51;;;;;;;;;;;;;;;13.89;85.33;99991.09;6184186;23;791;-62
2023/11/06 22:13:17;;;;;;;;;;;;;;;13.79;86.41;99994.81;6182485;23;1441;-62
2023/11/06 22:15:44;;;;;;;;;;;;;;;13.78;87.12;99990.44;6183995;23;846;-63
2023/11/06 22:18:12;;;;;;;;;;;;;;;13.74;88.16;99994.50;6184086;23;819;-63
2023/11/06 22:20:38;;;;;;;;;;;;;;;13.65;89.51;99998.56;6184152;23;1948;-62
2023/11/06 22:23:05;;;;;;;;;;;;;;;13.53;91.59;100001.94;6184301;23;851;-63
2023/11/06 22:25:32;;;;;;;;;;;;;;;13.57;90.49;99999.09;6183926;23;795;-63
2023/11/06 22:27:58;;;;;;;;;;;;;;;13.71;89.45;99998.91;6184074;23;802;-63
2023/11/06 22:30:25;;;;;;;;;;;;;;;13.81;88.19;100002.75;6183906;23;838;-63
2023/11/06 22:32:52;;;;;;;;;;;;;;;13.81;87.43;99994.41;6184053;23;822;-63
2023/11/06 22:35:19;;;;;;;;;;;;;;;13.72;87.52;100006.03;6183891;23;795;-63
2023/11/06 22:37:45;;;;;;;;;;;;;;;13.76;87.25;100011.53;6184343;23;834;-62
2023/11/06 22:40:12;;;;;;;;;;;;;;;13.85;86.28;100001.47;6183794;23;1881;-62
2023/11/06 22:42:39;;;;;;;;;;;;;;;13.93;85.46;100013.25;6183923;23;870;-62
2023/11/06 22:45:07;;;;;;;;;;;;;;;13.83;86.21;100005.88;6183880;23;850;-62
2023/11/06 22:47:35;;;;;;;;;;;;;;;13.56;88.87;100012.19;6183953;23;846;-63
2023/11/06 22:50:02;;;;;;;;;;;;;;;13.32;91.75;100005.00;6183896;23;858;-63
2023/11/06 22:52:29;;;;;;;;;;;;;;;13.34;92.70;99999.81;6183858;23;854;-63
2023/11/06 22:54:56;;;;;;;;;;;;;;;13.34;93.60;100008.16;6183777;23;858;-63
2023/11/06 22:57:23;;;;;;;;;;;;;;;13.25;95.54;100011.41;6183688;23;846;-62
2023/11/06 22:59:50;;;;;;;;;;;;;;;13.11;97.97;100012.34;6183808;23;832;-62
2023/11/06 23:02:18;;;;;;;;;;;;;;;12.98;100.00;100012.09;6183688;23;1860;-62
2023/11/06 23:04:45;;;;;;;;;;;;;;;12.77;100.00;100023.44;6183849;23;815;-63
2023/11/06 23:07:11;;;;;;;;;;;;;;;12.57;100.00;100029.56;6183642;23;1106;-63
2023/11/06 23:09:38;;;;;;;;;;;;;;;12.41;100.00;100029.31;6183851;23;803;-62
2023/11/06 23:12:05;;;;;;;;;;;;;;;12.24;100.00;100029.03;6183747;23;823;-62
2023/11/06 23:14:32;;;;;;;;;;;;;;;12.17;100.00;100044.97;6183717;23;807;-62
2023/11/06 23:16:59;;;;;;;;;;;;;;;12.13;100.00;100044.19;6183720;23;890;-62
2023/11/06 23:19:25;;;;;;;;;;;;;;;12.16;100.00;100043.38;6183747;23;898;-62
2023/11/06 23:21:51;;;;;;;;;;;;;;;12.19;100.00;100042.56;6183711;23;1897;-62
2023/11/06 23:24:20;;;;;;;;;;;;;;;12.19;100.00;100048.91;6183658;23;847;-62
2023/11/06 23:26:47;;;;;;;;;;;;;;;12.19;100.00;100045.34;6183660;23;802;-62
2023/11/06 23:29:14;;;;;;;;;;;;;;;12.15;100.00;100041.81;6183675;23;862;-62
2023/11/06 23:31:41;;;;;;;;;;;;;;;12.20;100.00;100052.44;6182051;23;1375;-62
2023/11/06 23:34:08;;;;;;;;;;;;;;;12.23;100.00;100054.41;6183502;23;832;-62
2023/11/06 23:36:36;;;;;;;;;;;;;;;12.20;100.00;100055.22;6183673;23;870;-62
2023/11/06 23:39:03;;;;;;;;;;;;;;;12.17;100.00;100051.28;6183635;23;826;-62
2023/11/06 23:41:30;;;;;;;;;;;;;;;12.08;100.00;100050.97;6183512;23;1917;-63
2023/11/06 23:43:56;;;;;;;;;;;;;;;11.95;100.00;100056.19;6183548;23;895;-62
2023/11/06 23:46:23;;;;;;;;;;;;;;;11.83;100.00;100054.66;6183606;23;857;-62
2023/11/06 23:48:50;;;;;;;;;;;;;;;11.80;100.00;100065.75;6183496;23;847;-62
2023/11/06 23:51:16;;;;;;;;;;;;;;;11.72;100.00;100064.22;6183597;23;853;-62
2023/11/06 23:53:43;;;;;;;;;;;;;;;11.65;100.00;100067.81;6183415;23;783;-62
2023/11/06 23:56:10;;;;;;;;;;;;;;;11.56;100.00;100072.97;6183436;23;843;-62
2023/11/06 23:58:37;;;;;;;;;;;;;;;11.51;100.00;100071.44;6184365;23;884;-62
